sensor_id;sensor_type;location;lat;lon;timestamp;P1;durP1;ratioP1;P2;durP2;ratioP2
27365;SDS011;14837;57.148;-2.144;2023-07-13T00:02:18;1.58;;;0.98;;
27365;SDS011;14837;57.148;-2.144;2023-07-13T00:04:44;1.77;;;1.08;;
27365;SDS011;14837;57.148;-2.144;2023-07-13T00:07:11;2.35;;;1.23;;
27365;SDS011;14837;57.148;-2.144;2023-07-13T00:09:40;3.05;;;1.05;;
27365;SDS011;14837;57.148;-2.144;2023-07-13T00:12:21;1.85;;;0.98;;
27365;SDS011;14837;57.148;-2.144;2023-07-13T00:14:48;1.15;;;1.05;;
27365;SDS011;14837;57.148;-2.144;2023-07-13T00:17:16;0.80;;;0.73;;
27365;SDS011;14837;57.148;-2.144;2023-07-13T00:19:43;1.20;;;1.00;;
27365;SDS011;14837;57.148;-2.144;2023-07-13T00:22:09;1.33;;;0.93;;
27365;SDS011;14837;57.148;-2.144;2023-07-13T00:24:36;1.10;;;0.80;;
27365;SDS011;14837;57.148;-2.144;2023-07-13T00:27:10;1.08;;;0.80;;
27365;SDS011;14837;57.148;-2.144;2023-07-13T00:29:37;1.30;;;1.20;;
27365;SDS011;14837;57.148;-2.144;2023-07-13T00:32:04;2.47;;;1.05;;
27365;SDS011;14837;57.148;-2.144;2023-07-13T00:34:31;2.22;;;1.30;;
27365;SDS011;14837;57.148;-2.144;2023-07-13T00:36:57;1.50;;;0.93;;
27365;SDS011;14837;57.148;-2.144;2023-07-13T00:39:24;1.55;;;1.10;;
27365;SDS011;14837;57.148;-2.144;2023-07-13T00:41:51;2.88;;;1.13;;
27365;SDS011;14837;57.148;-2.144;2023-07-13T00:44:18;1.73;;;1.52;;
27365;SDS011;14837;57.148;-2.144;2023-07-13T00:46:45;1.55;;;0.85;;
27365;SDS011;14837;57.148;-2.144;2023-07-13T00:49:13;1.05;;;0.88;;
27365;SDS011;14837;57.148;-2.144;2023-07-13T00:51:43;1.30;;;0.75;;
27365;SDS011;14837;57.148;-2.144;2023-07-13T00:54:11;1.27;;;0.90;;
27365;SDS011;14837;57.148;-2.144;2023-07-13T00:56:39;1.98;;;0.80;;
27365;SDS011;14837;57.148;-2.144;2023-07-13T00:59:06;1.70;;;0.93;;
27365;SDS011;14837;57.148;-2.144;2023-07-13T01:01:34;2.00;;;1.00;;
27365;SDS011;14837;57.148;-2.144;2023-07-13T01:04:03;1.40;;;0.88;;
27365;SDS011;14837;57.148;-2.144;2023-07-13T01:06:30;1.75;;;1.08;;
27365;SDS011;14837;57.148;-2.144;2023-07-13T01:08:56;1.40;;;0.77;;
27365;SDS011;14837;57.148;-2.144;2023-07-13T01:11:24;2.00;;;1.10;;
27365;SDS011;14837;57.148;-2.144;2023-07-13T01:13:52;1.25;;;1.15;;
27365;SDS011;14837;57.148;-2.144;2023-07-13T01:16:28;1.13;;;0.85;;
27365;SDS011;14837;57.148;-2.144;2023-07-13T01:18:56;1.58;;;1.00;;
27365;SDS011;14837;57.148;-2.144;2023-07-13T01:21:25;1.15;;;0.70;;
27365;SDS011;14837;57.148;-2.144;2023-07-13T01:23:51;1.02;;;0.90;;
27365;SDS011;14837;57.148;-2.144;2023-07-13T01:26:18;2.22;;;1.50;;
27365;SDS011;14837;57.148;-2.144;2023-07-13T01:28:45;1.60;;;1.02;;
27365;SDS011;14837;57.148;-2.144;2023-07-13T01:31:11;1.15;;;0.80;;
27365;SDS011;14837;57.148;-2.144;2023-07-13T01:33:39;2.58;;;1.00;;
27365;SDS011;14837;57.148;-2.144;2023-07-13T01:36:06;1.10;;;0.93;;
27365;SDS011;14837;57.148;-2.144;2023-07-13T01:38:33;2.40;;;1.08;;
27365;SDS011;14837;57.148;-2.144;2023-07-13T01:41:00;1.58;;;1.00;;
27365;SDS011;14837;57.148;-2.144;2023-07-13T01:43:26;1.70;;;1.10;;
27365;SDS011;14837;57.148;-2.144;2023-07-13T01:45:53;1.30;;;1.20;;
27365;SDS011;14837;57.148;-2.144;2023-07-13T01:48:31;1.75;;;1.10;;
27365;SDS011;14837;57.148;-2.144;2023-07-13T01:50:58;2.22;;;1.25;;
27365;SDS011;14837;57.148;-2.144;2023-07-13T01:53:24;1.48;;;1.30;;
27365;SDS011;14837;57.148;-2.144;2023-07-13T01:55:51;1.85;;;0.93;;
27365;SDS011;14837;57.148;-2.144;2023-07-13T01:58:17;1.40;;;1.23;;
27365;SDS011;14837;57.148;-2.144;2023-07-13T02:00:44;1.50;;;0.82;;
27365;SDS011;14837;57.148;-2.144;2023-07-13T02:03:10;1.95;;;1.63;;
27365;SDS011;14837;57.148;-2.144;2023-07-13T02:05:37;1.20;;;0.95;;
27365;SDS011;14837;57.148;-2.144;2023-07-13T02:08:04;2.03;;;1.30;;
27365;SDS011;14837;57.148;-2.144;2023-07-13T02:10:30;1.33;;;0.85;;
27365;SDS011;14837;57.148;-2.144;2023-07-13T02:12:57;2.88;;;0.90;;
27365;SDS011;14837;57.148;-2.144;2023-07-13T02:15:23;1.85;;;1.20;;
27365;SDS011;14837;57.148;-2.144;2023-07-13T02:17:50;1.80;;;1.27;;
27365;SDS011;14837;57.148;-2.144;2023-07-13T02:20:16;1.38;;;0.90;;
27365;SDS011;14837;57.148;-2.144;2023-07-13T02:22:43;0.95;;;0.80;;
27365;SDS011;14837;57.148;-2.144;2023-07-13T02:25:10;1.23;;;0.90;;
27365;SDS011;14837;57.148;-2.144;2023-07-13T02:27:36;1.48;;;1.35;;
27365;SDS011;14837;57.148;-2.144;2023-07-13T02:30:03;1.30;;;1.00;;
27365;SDS011;14837;57.148;-2.144;2023-07-13T02:32:30;1.05;;;0.90;;
27365;SDS011;14837;57.148;-2.144;2023-07-13T02:34:56;1.10;;;0.90;;
27365;SDS011;14837;57.148;-2.144;2023-07-13T02:37:23;2.33;;;1.13;;
27365;SDS011;14837;57.148;-2.144;2023-07-13T02:39:50;1.20;;;1.00;;
27365;SDS011;14837;57.148;-2.144;2023-07-13T02:42:16;1.58;;;0.85;;
27365;SDS011;14837;57.148;-2.144;2023-07-13T02:44:43;1.42;;;1.00;;
27365;SDS011;14837;57.148;-2.144;2023-07-13T02:47:10;2.45;;;1.30;;
27365;SDS011;14837;57.148;-2.144;2023-07-13T02:49:36;1.92;;;1.40;;
27365;SDS011;14837;57.148;-2.144;2023-07-13T02:52:03;1.20;;;1.10;;
27365;SDS011;14837;57.148;-2.144;2023-07-13T02:54:30;1.75;;;1.42;;
27365;SDS011;14837;57.148;-2.144;2023-07-13T02:56:56;1.30;;;1.00;;
27365;SDS011;14837;57.148;-2.144;2023-07-13T02:59:23;1.58;;;1.08;;
27365;SDS011;14837;57.148;-2.144;2023-07-13T03:01:49;1.40;;;1.08;;
27365;SDS011;14837;57.148;-2.144;2023-07-13T03:04:16;1.80;;;1.10;;
27365;SDS011;14837;57.148;-2.144;2023-07-13T03:06:46;0.85;;;0.85;;
27365;SDS011;14837;57.148;-2.144;2023-07-13T03:09:13;1.25;;;0.80;;
27365;SDS011;14837;57.148;-2.144;2023-07-13T03:11:39;1.08;;;0.90;;
27365;SDS011;14837;57.148;-2.144;2023-07-13T03:14:07;1.10;;;1.00;;
27365;SDS011;14837;57.148;-2.144;2023-07-13T03:16:34;2.13;;;1.50;;
27365;SDS011;14837;57.148;-2.144;2023-07-13T03:19:00;1.10;;;0.90;;
27365;SDS011;14837;57.148;-2.144;2023-07-13T03:21:27;1.30;;;1.05;;
27365;SDS011;14837;57.148;-2.144;2023-07-13T03:23:54;1.23;;;1.00;;
27365;SDS011;14837;57.148;-2.144;2023-07-13T03:26:20;1.05;;;0.82;;
27365;SDS011;14837;57.148;-2.144;2023-07-13T03:28:47;1.67;;;1.10;;
27365;SDS011;14837;57.148;-2.144;2023-07-13T03:31:18;1.33;;;0.80;;
27365;SDS011;14837;57.148;-2.144;2023-07-13T03:33:45;5.43;;;1.00;;
27365;SDS011;14837;57.148;-2.144;2023-07-13T03:36:13;1.05;;;0.95;;
27365;SDS011;14837;57.148;-2.144;2023-07-13T03:38:40;3.33;;;1.10;;
27365;SDS011;14837;57.148;-2.144;2023-07-13T03:41:06;1.00;;;0.90;;
27365;SDS011;14837;57.148;-2.144;2023-07-13T03:43:33;1.13;;;0.90;;
27365;SDS011;14837;57.148;-2.144;2023-07-13T03:45:59;1.10;;;1.00;;
27365;SDS011;14837;57.148;-2.144;2023-07-13T03:48:26;1.27;;;1.02;;
27365;SDS011;14837;57.148;-2.144;2023-07-13T03:50:52;1.13;;;0.95;;
27365;SDS011;14837;57.148;-2.144;2023-07-13T03:53:19;1.20;;;0.75;;
27365;SDS011;14837;57.148;-2.144;2023-07-13T03:55:46;1.45;;;1.05;;
27365;SDS011;14837;57.148;-2.144;2023-07-13T04:00:54;1.70;;;0.88;;
27365;SDS011;14837;57.148;-2.144;2023-07-13T04:03:20;1.48;;;1.02;;
27365;SDS011;14837;57.148;-2.144;2023-07-13T04:05:47;1.50;;;1.10;;
27365;SDS011;14837;57.148;-2.144;2023-07-13T04:08:14;1.10;;;1.00;;
27365;SDS011;14837;57.148;-2.144;2023-07-13T04:10:40;1.10;;;1.00;;
27365;SDS011;14837;57.148;-2.144;2023-07-13T04:13:07;1.20;;;1.10;;
27365;SDS011;14837;57.148;-2.144;2023-07-13T04:15:33;1.42;;;1.08;;
27365;SDS011;14837;57.148;-2.144;2023-07-13T04:18:00;0.80;;;0.80;;
27365;SDS011;14837;57.148;-2.144;2023-07-13T04:20:26;1.50;;;1.08;;
27365;SDS011;14837;57.148;-2.144;2023-07-13T04:22:53;1.00;;;0.90;;
27365;SDS011;14837;57.148;-2.144;2023-07-13T04:25:20;3.42;;;1.23;;
27365;SDS011;14837;57.148;-2.144;2023-07-13T04:27:47;1.35;;;1.02;;
27365;SDS011;14837;57.148;-2.144;2023-07-13T04:30:14;0.77;;;0.70;;
27365;SDS011;14837;57.148;-2.144;2023-07-13T04:32:40;1.77;;;1.20;;
27365;SDS011;14837;57.148;-2.144;2023-07-13T04:35:07;1.10;;;1.00;;
27365;SDS011;14837;57.148;-2.144;2023-07-13T04:37:34;2.78;;;0.95;;
27365;SDS011;14837;57.148;-2.144;2023-07-13T04:40:02;1.70;;;1.02;;
27365;SDS011;14837;57.148;-2.144;2023-07-13T04:42:29;1.38;;;1.10;;
27365;SDS011;14837;57.148;-2.144;2023-07-13T04:44:56;1.50;;;1.00;;
27365;SDS011;14837;57.148;-2.144;2023-07-13T04:47:22;1.58;;;1.45;;
27365;SDS011;14837;57.148;-2.144;2023-07-13T04:49:49;1.55;;;0.90;;
27365;SDS011;14837;57.148;-2.144;2023-07-13T04:52:16;0.93;;;0.80;;
27365;SDS011;14837;57.148;-2.144;2023-07-13T04:54:42;1.23;;;1.10;;
27365;SDS011;14837;57.148;-2.144;2023-07-13T04:57:09;0.93;;;0.70;;
27365;SDS011;14837;57.148;-2.144;2023-07-13T04:59:35;0.93;;;0.70;;
27365;SDS011;14837;57.148;-2.144;2023-07-13T05:02:02;1.23;;;0.73;;
27365;SDS011;14837;57.148;-2.144;2023-07-13T05:04:29;1.90;;;0.80;;
27365;SDS011;14837;57.148;-2.144;2023-07-13T05:06:56;1.00;;;0.90;;
27365;SDS011;14837;57.148;-2.144;2023-07-13T05:09:22;2.47;;;0.98;;
27365;SDS011;14837;57.148;-2.144;2023-07-13T05:11:49;1.25;;;0.90;;
27365;SDS011;14837;57.148;-2.144;2023-07-13T05:14:15;3.38;;;0.93;;
27365;SDS011;14837;57.148;-2.144;2023-07-13T05:16:42;1.55;;;1.02;;
27365;SDS011;14837;57.148;-2.144;2023-07-13T05:19:09;0.95;;;0.82;;
27365;SDS011;14837;57.148;-2.144;2023-07-13T05:21:36;1.25;;;1.00;;
27365;SDS011;14837;57.148;-2.144;2023-07-13T05:24:02;1.48;;;0.98;;
27365;SDS011;14837;57.148;-2.144;2023-07-13T05:26:44;1.23;;;0.80;;
27365;SDS011;14837;57.148;-2.144;2023-07-13T05:29:11;1.73;;;0.90;;
27365;SDS011;14837;57.148;-2.144;2023-07-13T05:31:37;1.17;;;1.02;;
27365;SDS011;14837;57.148;-2.144;2023-07-13T05:34:06;1.00;;;0.90;;
27365;SDS011;14837;57.148;-2.144;2023-07-13T05:36:33;1.52;;;0.60;;
27365;SDS011;14837;57.148;-2.144;2023-07-13T05:39:00;1.50;;;1.00;;
27365;SDS011;14837;57.148;-2.144;2023-07-13T05:41:26;1.58;;;1.10;;
27365;SDS011;14837;57.148;-2.144;2023-07-13T05:43:53;1.35;;;1.20;;
27365;SDS011;14837;57.148;-2.144;2023-07-13T05:46:19;1.50;;;0.88;;
27365;SDS011;14837;57.148;-2.144;2023-07-13T05:48:46;1.27;;;0.80;;
27365;SDS011;14837;57.148;-2.144;2023-07-13T05:51:13;1.17;;;0.70;;
27365;SDS011;14837;57.148;-2.144;2023-07-13T05:53:40;1.42;;;1.33;;
27365;SDS011;14837;57.148;-2.144;2023-07-13T05:56:06;1.00;;;0.80;;
27365;SDS011;14837;57.148;-2.144;2023-07-13T05:58:33;0.82;;;0.75;;
27365;SDS011;14837;57.148;-2.144;2023-07-13T06:01:05;2.13;;;0.80;;
27365;SDS011;14837;57.148;-2.144;2023-07-13T06:03:33;0.90;;;0.77;;
27365;SDS011;14837;57.148;-2.144;2023-07-13T06:05:59;1.55;;;0.70;;
27365;SDS011;14837;57.148;-2.144;2023-07-13T06:08:29;1.10;;;0.82;;
27365;SDS011;14837;57.148;-2.144;2023-07-13T06:11:01;0.60;;;0.50;;
27365;SDS011;14837;57.148;-2.144;2023-07-13T06:13:28;1.92;;;1.02;;
27365;SDS011;14837;57.148;-2.144;2023-07-13T06:15:54;1.35;;;0.50;;
27365;SDS011;14837;57.148;-2.144;2023-07-13T06:18:21;0.55;;;0.40;;
27365;SDS011;14837;57.148;-2.144;2023-07-13T06:20:47;1.33;;;0.50;;
27365;SDS011;14837;57.148;-2.144;2023-07-13T06:23:14;0.75;;;0.57;;
27365;SDS011;14837;57.148;-2.144;2023-07-13T06:25:40;0.85;;;0.50;;
27365;SDS011;14837;57.148;-2.144;2023-07-13T06:28:07;0.60;;;0.60;;
27365;SDS011;14837;57.148;-2.144;2023-07-13T06:30:33;0.88;;;0.60;;
27365;SDS011;14837;57.148;-2.144;2023-07-13T06:33:00;1.27;;;0.65;;
27365;SDS011;14837;57.148;-2.144;2023-07-13T06:35:27;1.15;;;0.68;;
27365;SDS011;14837;57.148;-2.144;2023-07-13T06:37:53;1.10;;;0.52;;
27365;SDS011;14837;57.148;-2.144;2023-07-13T06:40:20;1.05;;;0.60;;
27365;SDS011;14837;57.148;-2.144;2023-07-13T06:42:46;1.13;;;0.65;;
27365;SDS011;14837;57.148;-2.144;2023-07-13T06:45:13;1.23;;;0.50;;
27365;SDS011;14837;57.148;-2.144;2023-07-13T06:47:39;0.75;;;0.52;;
27365;SDS011;14837;57.148;-2.144;2023-07-13T06:50:06;0.40;;;0.40;;
27365;SDS011;14837;57.148;-2.144;2023-07-13T06:52:33;0.93;;;0.50;;
27365;SDS011;14837;57.148;-2.144;2023-07-13T06:54:59;1.05;;;0.70;;
27365;SDS011;14837;57.148;-2.144;2023-07-13T06:57:26;0.90;;;0.50;;
27365;SDS011;14837;57.148;-2.144;2023-07-13T06:59:53;0.65;;;0.50;;
27365;SDS011;14837;57.148;-2.144;2023-07-13T07:02:20;1.83;;;0.47;;
27365;SDS011;14837;57.148;-2.144;2023-07-13T07:04:46;0.70;;;0.70;;
27365;SDS011;14837;57.148;-2.144;2023-07-13T07:07:13;2.38;;;0.50;;
27365;SDS011;14837;57.148;-2.144;2023-07-13T07:09:40;0.85;;;0.50;;
27365;SDS011;14837;57.148;-2.144;2023-07-13T07:12:06;1.20;;;0.77;;
27365;SDS011;14837;57.148;-2.144;2023-07-13T07:14:33;0.28;;;0.20;;
27365;SDS011;14837;57.148;-2.144;2023-07-13T07:17:00;0.85;;;0.65;;
27365;SDS011;14837;57.148;-2.144;2023-07-13T07:19:28;1.33;;;0.70;;
27365;SDS011;14837;57.148;-2.144;2023-07-13T07:21:55;0.82;;;0.55;;
27365;SDS011;14837;57.148;-2.144;2023-07-13T07:24:22;0.77;;;0.52;;
27365;SDS011;14837;57.148;-2.144;2023-07-13T07:26:48;0.40;;;0.32;;
27365;SDS011;14837;57.148;-2.144;2023-07-13T07:29:17;1.08;;;0.60;;
27365;SDS011;14837;57.148;-2.144;2023-07-13T07:31:47;1.17;;;0.50;;
27365;SDS011;14837;57.148;-2.144;2023-07-13T07:34:29;1.83;;;1.13;;
27365;SDS011;14837;57.148;-2.144;2023-07-13T07:36:58;1.73;;;1.00;;
27365;SDS011;14837;57.148;-2.144;2023-07-13T07:39:28;0.45;;;0.38;;
27365;SDS011;14837;57.148;-2.144;2023-07-13T07:41:55;0.63;;;0.40;;
27365;SDS011;14837;57.148;-2.144;2023-07-13T07:44:23;0.85;;;0.40;;
27365;SDS011;14837;57.148;-2.144;2023-07-13T07:46:49;0.68;;;0.63;;
27365;SDS011;14837;57.148;-2.144;2023-07-13T07:49:16;1.08;;;0.55;;
27365;SDS011;14837;57.148;-2.144;2023-07-13T07:51:42;1.20;;;0.70;;
27365;SDS011;14837;57.148;-2.144;2023-07-13T07:54:09;1.55;;;0.60;;
27365;SDS011;14837;57.148;-2.144;2023-07-13T07:56:40;0.55;;;0.50;;
27365;SDS011;14837;57.148;-2.144;2023-07-13T07:59:09;1.17;;;0.60;;
27365;SDS011;14837;57.148;-2.144;2023-07-13T08:01:39;2.65;;;0.73;;
27365;SDS011;14837;57.148;-2.144;2023-07-13T08:04:26;1.00;;;0.63;;
27365;SDS011;14837;57.148;-2.144;2023-07-13T08:06:55;1.25;;;0.68;;
27365;SDS011;14837;57.148;-2.144;2023-07-13T08:09:26;1.02;;;0.63;;
27365;SDS011;14837;57.148;-2.144;2023-07-13T08:11:52;0.82;;;0.57;;
27365;SDS011;14837;57.148;-2.144;2023-07-13T08:14:23;2.75;;;0.95;;
27365;SDS011;14837;57.148;-2.144;2023-07-13T08:17:04;0.90;;;0.40;;
27365;SDS011;14837;57.148;-2.144;2023-07-13T08:19:31;0.68;;;0.40;;
27365;SDS011;14837;57.148;-2.144;2023-07-13T08:21:58;0.45;;;0.38;;
27365;SDS011;14837;57.148;-2.144;2023-07-13T08:24:24;1.65;;;0.65;;
27365;SDS011;14837;57.148;-2.144;2023-07-13T08:26:51;1.15;;;0.43;;
27365;SDS011;14837;57.148;-2.144;2023-07-13T08:29:18;1.00;;;0.55;;
27365;SDS011;14837;57.148;-2.144;2023-07-13T08:31:44;0.80;;;0.47;;
27365;SDS011;14837;57.148;-2.144;2023-07-13T08:34:11;0.65;;;0.60;;
27365;SDS011;14837;57.148;-2.144;2023-07-13T08:36:41;1.42;;;0.70;;
27365;SDS011;14837;57.148;-2.144;2023-07-13T08:39:07;0.63;;;0.30;;
27365;SDS011;14837;57.148;-2.144;2023-07-13T08:41:34;0.95;;;0.60;;
27365;SDS011;14837;57.148;-2.144;2023-07-13T08:44:01;1.23;;;0.50;;
27365;SDS011;14837;57.148;-2.144;2023-07-13T08:48:58;1.80;;;0.50;;
27365;SDS011;14837;57.148;-2.144;2023-07-13T08:53:54;0.70;;;0.70;;
27365;SDS011;14837;57.148;-2.144;2023-07-13T08:56:21;3.00;;;0.90;;
27365;SDS011;14837;57.148;-2.144;2023-07-13T08:58:50;1.13;;;0.70;;
27365;SDS011;14837;57.148;-2.144;2023-07-13T09:01:30;0.98;;;0.65;;
27365;SDS011;14837;57.148;-2.144;2023-07-13T09:04:08;1.60;;;0.93;;
27365;SDS011;14837;57.148;-2.144;2023-07-13T09:14:54;1.00;;;0.52;;
27365;SDS011;14837;57.148;-2.144;2023-07-13T09:17:24;1.10;;;0.60;;
27365;SDS011;14837;57.148;-2.144;2023-07-13T09:20:14;0.88;;;0.50;;
27365;SDS011;14837;57.148;-2.144;2023-07-13T09:22:45;0.80;;;0.45;;
27365;SDS011;14837;57.148;-2.144;2023-07-13T09:25:30;0.40;;;0.40;;
27365;SDS011;14837;57.148;-2.144;2023-07-13T09:28:02;0.55;;;0.50;;
27365;SDS011;14837;57.148;-2.144;2023-07-13T09:30:45;1.08;;;0.90;;
27365;SDS011;14837;57.148;-2.144;2023-07-13T09:33:12;1.08;;;0.77;;
27365;SDS011;14837;57.148;-2.144;2023-07-13T09:35:40;2.35;;;0.90;;
27365;SDS011;14837;57.148;-2.144;2023-07-13T09:38:11;0.65;;;0.60;;
27365;SDS011;14837;57.148;-2.144;2023-07-13T09:43:05;2.15;;;0.60;;
27365;SDS011;14837;57.148;-2.144;2023-07-13T09:45:33;0.85;;;0.70;;
27365;SDS011;14837;57.148;-2.144;2023-07-13T09:48:10;0.80;;;0.35;;
27365;SDS011;14837;57.148;-2.144;2023-07-13T09:50:37;1.02;;;0.65;;
27365;SDS011;14837;57.148;-2.144;2023-07-13T09:53:04;2.00;;;0.60;;
27365;SDS011;14837;57.148;-2.144;2023-07-13T09:55:37;0.50;;;0.50;;
27365;SDS011;14837;57.148;-2.144;2023-07-13T09:58:09;0.82;;;0.60;;
27365;SDS011;14837;57.148;-2.144;2023-07-13T10:00:36;0.65;;;0.50;;
27365;SDS011;14837;57.148;-2.144;2023-07-13T10:03:05;1.33;;;0.60;;
27365;SDS011;14837;57.148;-2.144;2023-07-13T10:05:39;0.85;;;0.55;;
27365;SDS011;14837;57.148;-2.144;2023-07-13T10:08:06;1.38;;;0.80;;
27365;SDS011;14837;57.148;-2.144;2023-07-13T10:10:33;1.35;;;1.15;;
27365;SDS011;14837;57.148;-2.144;2023-07-13T10:13:02;1.00;;;0.60;;
27365;SDS011;14837;57.148;-2.144;2023-07-13T10:15:31;1.05;;;0.60;;
27365;SDS011;14837;57.148;-2.144;2023-07-13T10:17:58;0.88;;;0.52;;
27365;SDS011;14837;57.148;-2.144;2023-07-13T10:20:25;1.20;;;0.70;;
27365;SDS011;14837;57.148;-2.144;2023-07-13T10:23:00;1.00;;;0.70;;
27365;SDS011;14837;57.148;-2.144;2023-07-13T10:25:32;1.20;;;0.80;;
27365;SDS011;14837;57.148;-2.144;2023-07-13T10:28:02;0.68;;;0.43;;
27365;SDS011;14837;57.148;-2.144;2023-07-13T10:30:32;1.38;;;0.60;;
27365;SDS011;14837;57.148;-2.144;2023-07-13T10:33:02;0.40;;;0.32;;
27365;SDS011;14837;57.148;-2.144;2023-07-13T10:35:29;1.05;;;0.60;;
27365;SDS011;14837;57.148;-2.144;2023-07-13T10:37:58;1.00;;;0.65;;
27365;SDS011;14837;57.148;-2.144;2023-07-13T10:40:29;0.30;;;0.30;;
27365;SDS011;14837;57.148;-2.144;2023-07-13T10:42:57;0.75;;;0.30;;
27365;SDS011;14837;57.148;-2.144;2023-07-13T10:45:24;0.65;;;0.50;;
27365;SDS011;14837;57.148;-2.144;2023-07-13T10:47:53;1.15;;;0.57;;
27365;SDS011;14837;57.148;-2.144;2023-07-13T10:50:23;0.60;;;0.43;;
27365;SDS011;14837;57.148;-2.144;2023-07-13T10:52:55;1.38;;;0.43;;
27365;SDS011;14837;57.148;-2.144;2023-07-13T10:55:40;0.82;;;0.60;;
27365;SDS011;14837;57.148;-2.144;2023-07-13T10:58:20;0.70;;;0.50;;
27365;SDS011;14837;57.148;-2.144;2023-07-13T11:01:02;0.95;;;0.60;;
27365;SDS011;14837;57.148;-2.144;2023-07-13T11:03:30;0.85;;;0.52;;
27365;SDS011;14837;57.148;-2.144;2023-07-13T11:06:08;0.98;;;0.85;;
27365;SDS011;14837;57.148;-2.144;2023-07-13T11:08:38;0.60;;;0.60;;
27365;SDS011;14837;57.148;-2.144;2023-07-13T11:18:45;1.58;;;0.68;;
27365;SDS011;14837;57.148;-2.144;2023-07-13T11:26:43;1.10;;;0.45;;
27365;SDS011;14837;57.148;-2.144;2023-07-13T11:32:30;0.57;;;0.43;;
27365;SDS011;14837;57.148;-2.144;2023-07-13T11:34:57;0.65;;;0.60;;
27365;SDS011;14837;57.148;-2.144;2023-07-13T11:37:24;0.85;;;0.63;;
27365;SDS011;14837;57.148;-2.144;2023-07-13T11:39:51;0.55;;;0.50;;
27365;SDS011;14837;57.148;-2.144;2023-07-13T11:42:18;0.98;;;0.93;;
27365;SDS011;14837;57.148;-2.144;2023-07-13T11:44:47;0.60;;;0.50;;
27365;SDS011;14837;57.148;-2.144;2023-07-13T11:47:33;0.52;;;0.40;;
27365;SDS011;14837;57.148;-2.144;2023-07-13T11:50:00;1.15;;;0.60;;
27365;SDS011;14837;57.148;-2.144;2023-07-13T11:52:30;0.65;;;0.40;;
27365;SDS011;14837;57.148;-2.144;2023-07-13T11:55:00;0.40;;;0.40;;
27365;SDS011;14837;57.148;-2.144;2023-07-13T11:59:53;1.38;;;0.52;;
27365;SDS011;14837;57.148;-2.144;2023-07-13T12:02:35;1.20;;;0.70;;
27365;SDS011;14837;57.148;-2.144;2023-07-13T12:05:02;0.82;;;0.50;;
27365;SDS011;14837;57.148;-2.144;2023-07-13T12:07:30;0.73;;;0.60;;
27365;SDS011;14837;57.148;-2.144;2023-07-13T12:10:01;1.08;;;0.80;;
27365;SDS011;14837;57.148;-2.144;2023-07-13T12:12:28;1.40;;;1.20;;
27365;SDS011;14837;57.148;-2.144;2023-07-13T12:14:55;0.95;;;0.82;;
27365;SDS011;14837;57.148;-2.144;2023-07-13T12:17:23;0.85;;;0.60;;
27365;SDS011;14837;57.148;-2.144;2023-07-13T12:19:50;0.50;;;0.50;;
27365;SDS011;14837;57.148;-2.144;2023-07-13T12:22:18;0.55;;;0.40;;
27365;SDS011;14837;57.148;-2.144;2023-07-13T12:24:46;1.85;;;0.60;;
27365;SDS011;14837;57.148;-2.144;2023-07-13T12:27:18;0.88;;;0.77;;
27365;SDS011;14837;57.148;-2.144;2023-07-13T12:29:49;0.70;;;0.50;;
27365;SDS011;14837;57.148;-2.144;2023-07-13T12:32:17;1.15;;;0.70;;
27365;SDS011;14837;57.148;-2.144;2023-07-13T12:34:51;0.98;;;0.80;;
27365;SDS011;14837;57.148;-2.144;2023-07-13T12:39:45;0.65;;;0.50;;
27365;SDS011;14837;57.148;-2.144;2023-07-13T12:42:19;0.63;;;0.60;;
27365;SDS011;14837;57.148;-2.144;2023-07-13T12:47:24;0.73;;;0.50;;
27365;SDS011;14837;57.148;-2.144;2023-07-13T12:49:53;1.00;;;0.60;;
27365;SDS011;14837;57.148;-2.144;2023-07-13T12:52:21;1.95;;;0.90;;
27365;SDS011;14837;57.148;-2.144;2023-07-13T12:54:55;1.58;;;0.60;;
27365;SDS011;14837;57.148;-2.144;2023-07-13T12:57:32;0.90;;;0.50;;
27365;SDS011;14837;57.148;-2.144;2023-07-13T13:00:04;0.50;;;0.40;;
27365;SDS011;14837;57.148;-2.144;2023-07-13T13:02:32;1.50;;;0.60;;
27365;SDS011;14837;57.148;-2.144;2023-07-13T13:05:00;0.82;;;0.52;;
27365;SDS011;14837;57.148;-2.144;2023-07-13T13:07:27;2.85;;;0.60;;
27365;SDS011;14837;57.148;-2.144;2023-07-13T13:09:55;0.43;;;0.30;;
27365;SDS011;14837;57.148;-2.144;2023-07-13T13:12:22;0.95;;;0.30;;
27365;SDS011;14837;57.148;-2.144;2023-07-13T13:14:52;0.68;;;0.50;;
27365;SDS011;14837;57.148;-2.144;2023-07-13T13:17:20;0.20;;;0.13;;
27365;SDS011;14837;57.148;-2.144;2023-07-13T13:19:47;0.20;;;0.10;;
27365;SDS011;14837;57.148;-2.144;2023-07-13T13:22:14;0.57;;;0.25;;
27365;SDS011;14837;57.148;-2.144;2023-07-13T13:24:40;0.17;;;0.17;;
27365;SDS011;14837;57.148;-2.144;2023-07-13T13:27:11;0.10;;;0.10;;
27365;SDS011;14837;57.148;-2.144;2023-07-13T13:29:40;0.10;;;0.10;;
27365;SDS011;14837;57.148;-2.144;2023-07-13T13:32:09;0.22;;;0.20;;
27365;SDS011;14837;57.148;-2.144;2023-07-13T13:34:36;0.20;;;0.20;;
27365;SDS011;14837;57.148;-2.144;2023-07-13T13:37:03;0.45;;;0.10;;
27365;SDS011;14837;57.148;-2.144;2023-07-13T13:39:32;0.10;;;0.10;;
27365;SDS011;14837;57.148;-2.144;2023-07-13T13:42:00;0.10;;;0.10;;
27365;SDS011;14837;57.148;-2.144;2023-07-13T13:44:26;0.20;;;0.20;;
27365;SDS011;14837;57.148;-2.144;2023-07-13T13:46:53;0.70;;;0.20;;
27365;SDS011;14837;57.148;-2.144;2023-07-13T13:49:21;0.43;;;0.10;;
27365;SDS011;14837;57.148;-2.144;2023-07-13T13:51:48;0.28;;;0.20;;
27365;SDS011;14837;57.148;-2.144;2023-07-13T13:54:16;0.43;;;0.25;;
27365;SDS011;14837;57.148;-2.144;2023-07-13T13:56:44;0.10;;;0.10;;
27365;SDS011;14837;57.148;-2.144;2023-07-13T13:59:11;0.30;;;0.25;;
27365;SDS011;14837;57.148;-2.144;2023-07-13T14:01:38;0.85;;;0.30;;
27365;SDS011;14837;57.148;-2.144;2023-07-13T14:04:06;0.43;;;0.10;;
27365;SDS011;14837;57.148;-2.144;2023-07-13T14:06:33;0.40;;;0.20;;
27365;SDS011;14837;57.148;-2.144;2023-07-13T14:09:00;0.68;;;0.20;;
27365;SDS011;14837;57.148;-2.144;2023-07-13T14:11:27;0.45;;;0.45;;
27365;SDS011;14837;57.148;-2.144;2023-07-13T14:13:57;0.50;;;0.35;;
27365;SDS011;14837;57.148;-2.144;2023-07-13T14:16:31;1.38;;;0.30;;
27365;SDS011;14837;57.148;-2.144;2023-07-13T14:19:00;2.20;;;0.45;;
27365;SDS011;14837;57.148;-2.144;2023-07-13T14:21:28;0.20;;;0.20;;
27365;SDS011;14837;57.148;-2.144;2023-07-13T14:23:54;0.63;;;0.30;;
27365;SDS011;14837;57.148;-2.144;2023-07-13T14:26:25;0.40;;;0.30;;
27365;SDS011;14837;57.148;-2.144;2023-07-13T14:28:53;0.45;;;0.30;;
27365;SDS011;14837;57.148;-2.144;2023-07-13T14:31:20;0.57;;;0.38;;
27365;SDS011;14837;57.148;-2.144;2023-07-13T14:33:47;1.15;;;0.50;;
27365;SDS011;14837;57.148;-2.144;2023-07-13T14:38:41;0.40;;;0.40;;
27365;SDS011;14837;57.148;-2.144;2023-07-13T14:41:07;0.40;;;0.30;;
27365;SDS011;14837;57.148;-2.144;2023-07-13T14:43:34;2.10;;;0.70;;
27365;SDS011;14837;57.148;-2.144;2023-07-13T14:46:00;0.68;;;0.43;;
27365;SDS011;14837;57.148;-2.144;2023-07-13T14:48:27;0.98;;;0.43;;
27365;SDS011;14837;57.148;-2.144;2023-07-13T14:50:55;0.90;;;0.50;;
27365;SDS011;14837;57.148;-2.144;2023-07-13T14:53:22;0.90;;;0.38;;
27365;SDS011;14837;57.148;-2.144;2023-07-13T14:55:49;0.52;;;0.40;;
27365;SDS011;14837;57.148;-2.144;2023-07-13T14:58:17;0.57;;;0.40;;
27365;SDS011;14837;57.148;-2.144;2023-07-13T15:00:44;0.75;;;0.45;;
27365;SDS011;14837;57.148;-2.144;2023-07-13T15:03:21;0.70;;;0.40;;
27365;SDS011;14837;57.148;-2.144;2023-07-13T15:05:48;0.40;;;0.30;;
27365;SDS011;14837;57.148;-2.144;2023-07-13T15:08:15;0.93;;;0.50;;
27365;SDS011;14837;57.148;-2.144;2023-07-13T15:10:42;0.63;;;0.40;;
27365;SDS011;14837;57.148;-2.144;2023-07-13T15:13:16;1.67;;;0.60;;
27365;SDS011;14837;57.148;-2.144;2023-07-13T15:15:49;2.10;;;0.30;;
27365;SDS011;14837;57.148;-2.144;2023-07-13T15:18:18;0.40;;;0.30;;
27365;SDS011;14837;57.148;-2.144;2023-07-13T15:20:45;1.15;;;0.50;;
27365;SDS011;14837;57.148;-2.144;2023-07-13T15:23:13;1.00;;;0.50;;
27365;SDS011;14837;57.148;-2.144;2023-07-13T15:25:41;1.95;;;0.60;;